createdAt,value
2019-02-21T00:02:18.577Z,9.22
2019-02-21T00:04:47.244Z,9.23
2019-02-21T00:07:15.878Z,9.22
2019-02-21T00:09:44.486Z,9.32
2019-02-21T00:12:13.069Z,9.30
2019-02-21T00:14:41.700Z,9.24
2019-02-21T00:17:10.388Z,9.22
2019-02-21T00:19:39.139Z,9.20
2019-02-21T00:22:07.823Z,9.26
2019-02-21T00:24:36.600Z,9.35
2019-02-21T00:27:05.236Z,9.41
2019-02-21T00:29:33.830Z,9.44
2019-02-21T00:32:02.419Z,9.37
2019-02-21T00:34:31.027Z,9.35
2019-02-21T00:36:59.721Z,9.29
2019-02-21T00:39:28.309Z,9.23
2019-02-21T00:41:56.948Z,9.16
2019-02-21T00:44:25.679Z,9.11
2019-02-21T00:46:54.303Z,9.04
2019-02-21T00:49:22.852Z,9.10
2019-02-21T00:51:51.464Z,9.15
2019-02-21T00:54:19.950Z,9.20
2019-02-21T00:56:48.590Z,9.22
2019-02-21T00:59:17.134Z,9.32
2019-02-21T01:01:45.724Z,9.29
2019-02-21T01:04:14.336Z,9.10
2019-02-21T01:06:43.003Z,8.98
2019-02-21T01:09:11.639Z,8.93
2019-02-21T01:11:40.251Z,8.84
2019-02-21T01:14:08.814Z,8.74
2019-02-21T01:16:37.381Z,8.71
2019-02-21T01:19:06.058Z,8.60
2019-02-21T01:21:34.693Z,8.64
2019-02-21T01:24:05.040Z,8.55
2019-02-21T01:26:36.587Z,8.40
2019-02-21T01:29:05.259Z,8.28
2019-02-21T01:31:33.860Z,8.12
2019-02-21T01:34:02.339Z,7.98
2019-02-21T01:36:30.840Z,7.84
2019-02-21T01:38:59.361Z,7.65
2019-02-21T01:41:28.002Z,7.73
2019-02-21T01:43:56.489Z,7.78
2019-02-21T01:46:25.213Z,7.77
2019-02-21T01:48:53.758Z,7.74
2019-02-21T01:51:22.329Z,7.70
2019-02-21T01:53:50.892Z,7.49
2019-02-21T01:56:19.576Z,7.36
2019-02-21T01:58:48.073Z,7.28
2019-02-21T02:01:16.746Z,7.17
2019-02-21T02:03:45.383Z,7.10
2019-02-21T02:06:14.055Z,7.03
2019-02-21T02:08:42.694Z,6.96
2019-02-21T02:11:11.331Z,6.98
2019-02-21T02:13:39.957Z,6.96
2019-02-21T02:16:08.645Z,7.03
2019-02-21T02:18:37.259Z,7.06
2019-02-21T02:21:06.838Z,7.13
2019-02-21T02:23:35.445Z,7.17
2019-02-21T02:26:04.075Z,7.20
2019-02-21T02:28:32.631Z,7.17
2019-02-21T02:31:01.200Z,7.14
2019-02-21T02:33:29.708Z,7.16
2019-02-21T02:35:58.210Z,7.14
2019-02-21T02:38:26.769Z,7.17
2019-02-21T02:40:55.328Z,7.13
2019-02-21T02:43:23.939Z,7.10
2019-02-21T02:45:52.484Z,7.13
2019-02-21T02:48:21.000Z,7.09
2019-02-21T02:50:49.600Z,7.05
2019-02-21T02:53:18.275Z,7.01
2019-02-21T02:55:46.862Z,6.98
2019-02-21T02:58:15.470Z,6.89
2019-02-21T03:00:44.294Z,6.78
2019-02-21T03:03:12.934Z,6.72
2019-02-21T03:05:41.600Z,6.53
2019-02-21T03:08:10.309Z,6.61
2019-02-21T03:10:38.853Z,6.58
2019-02-21T03:13:07.533Z,6.53
2019-02-21T03:15:36.160Z,6.56
2019-02-21T03:18:04.827Z,6.76
2019-02-21T03:20:33.475Z,6.79
2019-02-21T03:23:02.047Z,6.90
2019-02-21T03:25:30.688Z,7.01
2019-02-21T03:27:59.662Z,6.98
2019-02-21T03:30:28.199Z,6.99
2019-02-21T03:32:56.694Z,7.02
2019-02-21T03:35:25.232Z,6.98
2019-02-21T03:37:53.717Z,6.94
2019-02-21T03:40:22.321Z,6.87
2019-02-21T03:42:50.817Z,6.78
2019-02-21T03:45:19.481Z,6.78
2019-02-21T03:47:48.066Z,6.79
2019-02-21T03:50:16.704Z,6.82
2019-02-21T03:52:45.276Z,6.82
2019-02-21T03:55:13.930Z,6.84
2019-02-21T03:57:42.567Z,6.83
2019-02-21T04:00:12.204Z,6.80
2019-02-21T04:02:40.869Z,6.70
2019-02-21T04:05:09.519Z,6.54
2019-02-21T04:07:38.294Z,6.49
2019-02-21T04:10:08.872Z,6.41
2019-02-21T04:12:37.521Z,6.42
2019-02-21T04:15:09.238Z,6.42
2019-02-21T04:17:37.807Z,6.37
2019-02-21T04:20:07.465Z,6.37
2019-02-21T04:22:35.943Z,6.31
2019-02-21T04:25:05.669Z,6.26
2019-02-21T04:27:34.304Z,6.28
2019-02-21T04:30:02.980Z,6.15
2019-02-21T04:32:31.539Z,6.14
2019-02-21T04:35:00.258Z,6.14
2019-02-21T04:37:29.065Z,6.09
2019-02-21T04:39:57.563Z,6.13
2019-02-21T04:42:26.172Z,6.13
2019-02-21T04:44:54.735Z,6.10
2019-02-21T04:47:23.382Z,5.99
2019-02-21T04:49:52.012Z,5.95
2019-02-21T04:52:20.558Z,5.91
2019-02-21T04:54:49.119Z,5.82
2019-02-21T04:57:17.674Z,5.73
2019-02-21T04:59:46.172Z,5.69
2019-02-21T05:02:14.675Z,5.74
2019-02-21T05:04:43.235Z,5.68
2019-02-21T05:07:11.843Z,5.74
2019-02-21T05:09:40.386Z,5.74
2019-02-21T05:12:08.920Z,5.69
2019-02-21T05:14:37.484Z,5.63
2019-02-21T05:17:06.028Z,5.56
2019-02-21T05:19:34.706Z,5.50
2019-02-21T05:22:03.250Z,5.52
2019-02-21T05:24:31.933Z,5.49
2019-02-21T05:27:08.118Z,5.41
2019-02-21T05:29:36.657Z,5.40
2019-02-21T05:32:26.145Z,5.45
2019-02-21T05:35:05.522Z,5.52
2019-02-21T05:37:35.669Z,5.62
2019-02-21T05:40:06.074Z,5.83
2019-02-21T05:42:39.114Z,6.12
2019-02-21T05:45:12.456Z,6.40
2019-02-21T05:47:45.252Z,6.59
2019-02-21T05:50:15.602Z,6.75
2019-02-21T05:52:45.996Z,6.82
2019-02-21T05:55:32.945Z,6.81
2019-02-21T05:58:06.465Z,6.88
2019-02-21T06:00:39.597Z,6.97
2019-02-21T06:03:09.916Z,7.24
2019-02-21T06:05:55.253Z,7.57
2019-02-21T06:08:28.064Z,7.93
2019-02-21T06:11:01.251Z,8.32
2019-02-21T06:13:37.657Z,8.64
2019-02-21T06:16:13.769Z,8.89
2019-02-21T06:18:53.045Z,9.14
2019-02-21T06:21:39.613Z,9.38
2019-02-21T06:24:28.423Z,9.65
2019-02-21T06:27:00.856Z,9.94
2019-02-21T06:29:34.200Z,10.18
2019-02-21T06:32:13.597Z,10.43
2019-02-21T06:34:33.718Z,10.69
2019-02-21T06:37:03.046Z,10.89
2019-02-21T06:39:33.777Z,10.99
2019-02-21T06:42:02.464Z,11.10
2019-02-21T06:44:31.198Z,11.24
2019-02-21T06:46:59.831Z,11.39
2019-02-21T06:49:32.878Z,11.45
2019-02-21T06:52:02.871Z,11.55
2019-02-21T06:54:31.651Z,11.66
2019-02-21T06:57:00.351Z,11.67
2019-02-21T06:59:29.298Z,11.81
2019-02-21T07:01:59.855Z,11.94
2019-02-21T07:04:33.299Z,11.96
2019-02-21T07:07:01.405Z,11.96
2019-02-21T07:09:29.934Z,12.06
2019-02-21T07:11:58.506Z,12.23
2019-02-21T07:14:27.294Z,12.23
2019-02-21T07:16:56.041Z,12.45
2019-02-21T07:19:24.645Z,12.80
2019-02-21T07:21:53.153Z,13.02
2019-02-21T07:24:22.084Z,13.01
2019-02-21T07:26:50.935Z,12.88
2019-02-21T07:29:19.738Z,12.94
2019-02-21T07:31:49.359Z,13.34
2019-02-21T07:34:18.258Z,13.51
2019-02-21T07:36:46.823Z,13.82
2019-02-21T07:39:18.527Z,14.19
2019-02-21T07:41:45.952Z,14.29
2019-02-21T07:44:14.693Z,14.43
2019-02-21T07:46:43.391Z,14.58
2019-02-21T07:49:12.071Z,15.02
2019-02-21T07:51:41.579Z,15.02
2019-02-21T07:54:10.436Z,15.06
2019-02-21T07:56:42.236Z,15.40
2019-02-21T07:59:12.048Z,15.70
2019-02-21T08:01:40.210Z,15.57
2019-02-21T08:04:08.980Z,15.56
2019-02-21T08:06:37.658Z,15.77
2019-02-21T08:09:08.586Z,15.85
2019-02-21T08:11:37.262Z,16.15
2019-02-21T08:14:08.908Z,16.23
2019-02-21T08:16:37.620Z,16.25
2019-02-21T08:19:06.147Z,16.41
2019-02-21T08:21:34.924Z,16.44
2019-02-21T08:24:03.667Z,16.82
2019-02-21T08:26:32.439Z,17.04
2019-02-21T08:29:01.190Z,17.02
2019-02-21T08:31:30.168Z,17.20
2019-02-21T08:34:04.168Z,17.31
2019-02-21T08:36:32.337Z,17.46
2019-02-21T08:39:00.963Z,17.79
2019-02-21T08:41:30.427Z,18.21
2019-02-21T08:43:59.252Z,18.18
2019-02-21T08:46:30.098Z,18.18
2019-02-21T08:49:00.426Z,18.55
2019-02-21T08:51:30.915Z,18.55
2019-02-21T08:53:59.855Z,18.86
2019-02-21T08:56:34.347Z,18.53
2019-02-21T08:59:06.887Z,18.96
2019-02-21T09:01:36.032Z,19.51
2019-02-21T09:04:14.824Z,19.68
2019-02-21T09:06:39.830Z,19.56
2019-02-21T09:09:08.673Z,20.26
2019-02-21T09:11:37.910Z,20.37
2019-02-21T09:14:08.842Z,20.34
2019-02-21T09:16:38.784Z,20.62
2019-02-21T09:19:08.996Z,20.99
2019-02-21T09:21:42.210Z,20.62
2019-02-21T09:24:26.848Z,21.20
2019-02-21T09:26:47.713Z,20.96
2019-02-21T09:29:18.307Z,20.31
2019-02-21T09:31:49.408Z,20.75
2019-02-21T09:34:21.451Z,19.76
2019-02-21T09:36:52.468Z,19.89
2019-02-21T09:39:24.378Z,19.84
2019-02-21T09:41:53.802Z,20.26
2019-02-21T09:44:27.435Z,20.53
2019-02-21T09:46:58.121Z,20.60
2019-02-21T09:49:27.176Z,21.76
2019-02-21T09:51:56.144Z,22.77
2019-02-21T09:54:29.754Z,23.30
2019-02-21T09:56:58.497Z,23.15
2019-02-21T09:59:28.802Z,22.99
2019-02-21T10:01:57.893Z,22.62
2019-02-21T10:04:32.135Z,23.55
2019-02-21T10:06:56.807Z,24.97
2019-02-21T10:09:25.406Z,24.49
2019-02-21T10:11:53.898Z,23.93
2019-02-21T10:14:22.448Z,24.73
2019-02-21T10:16:51.181Z,25.10
2019-02-21T10:19:19.812Z,24.34
2019-02-21T10:21:48.421Z,24.38
2019-02-21T10:24:17.191Z,24.56
2019-02-21T10:26:45.812Z,24.93
2019-02-21T10:29:14.346Z,23.79
2019-02-21T10:31:45.964Z,23.51
2019-02-21T10:34:14.713Z,24.06
2019-02-21T10:36:43.316Z,23.54
2019-02-21T10:39:12.538Z,23.64
2019-02-21T10:41:46.087Z,23.24
2019-02-21T10:44:17.448Z,23.42
2019-02-21T10:46:46.354Z,24.50
2019-02-21T10:49:17.760Z,24.49
2019-02-21T10:51:46.575Z,24.39
2019-02-21T10:54:15.542Z,25.44
2019-02-21T10:56:44.350Z,26.36
2019-02-21T10:59:18.746Z,25.14
2019-02-21T11:01:47.635Z,24.04
2019-02-21T11:04:16.393Z,23.72
2019-02-21T11:06:45.082Z,23.49
2019-02-21T11:09:16.792Z,24.23
2019-02-21T11:11:45.451Z,24.30
2019-02-21T11:14:14.216Z,24.62
2019-02-21T11:16:43.009Z,26.16
2019-02-21T11:19:11.708Z,25.99
2019-02-21T11:21:41.382Z,26.18
2019-02-21T11:24:10.843Z,26.13
2019-02-21T11:26:45.656Z,25.16
2019-02-21T11:29:22.228Z,25.88
2019-02-21T11:31:51.086Z,25.42
2019-02-21T11:34:19.810Z,25.22
2019-02-21T11:36:48.543Z,26.61
2019-02-21T11:39:17.344Z,26.63
2019-02-21T11:41:46.176Z,25.88
2019-02-21T11:44:17.496Z,24.41
2019-02-21T11:46:52.495Z,24.13
2019-02-21T11:49:33.262Z,24.81
2019-02-21T11:52:10.561Z,24.24
2019-02-21T11:54:39.607Z,24.53
2019-02-21T11:57:16.529Z,25.07
2019-02-21T11:59:47.169Z,25.59
2019-02-21T12:02:16.071Z,25.31
2019-02-21T12:04:53.173Z,24.72
2019-02-21T12:07:23.563Z,23.96
2019-02-21T12:09:52.331Z,24.28
2019-02-21T12:12:21.030Z,24.38
2019-02-21T12:14:51.304Z,25.09
2019-02-21T12:17:21.450Z,26.87
2019-02-21T12:20:00.623Z,26.97
2019-02-21T12:22:29.357Z,26.07
2019-02-21T12:25:00.393Z,26.45
2019-02-21T12:27:31.496Z,26.17
2019-02-21T12:30:00.524Z,25.54
2019-02-21T12:32:30.878Z,26.03
2019-02-21T12:35:02.522Z,25.47
2019-02-21T12:37:31.398Z,26.07
2019-02-21T12:40:03.418Z,26.64
2019-02-21T12:42:32.189Z,26.11
2019-02-21T12:45:01.023Z,27.31
2019-02-21T12:47:32.733Z,26.64
2019-02-21T12:50:01.453Z,25.70
2019-02-21T12:52:30.314Z,25.37
2019-02-21T12:55:01.523Z,27.12
2019-02-21T12:57:34.738Z,27.30
2019-02-21T13:00:03.794Z,26.47
2019-02-21T13:02:32.582Z,25.61
2019-02-21T13:05:01.150Z,26.08
2019-02-21T13:07:29.783Z,26.44
2019-02-21T13:09:58.452Z,27.28
2019-02-21T13:12:27.124Z,27.81
2019-02-21T13:14:55.732Z,26.49
2019-02-21T13:17:24.353Z,25.67
2019-02-21T13:19:53.302Z,25.66
2019-02-21T13:22:22.070Z,25.33
2019-02-21T13:24:51.043Z,25.12
2019-02-21T13:27:19.819Z,26.42
2019-02-21T13:29:48.652Z,27.26
2019-02-21T13:32:17.459Z,26.33
2019-02-21T13:34:49.174Z,25.67
2019-02-21T13:37:28.180Z,25.89
2019-02-21T13:39:48.693Z,26.29
2019-02-21T13:42:17.830Z,26.13
2019-02-21T13:44:46.624Z,27.31
2019-02-21T13:47:18.599Z,27.16
2019-02-21T13:49:47.459Z,26.87
2019-02-21T13:52:16.313Z,26.89
2019-02-21T13:54:45.158Z,26.88
2019-02-21T13:57:14.497Z,26.23
2019-02-21T13:59:43.190Z,25.94
2019-02-21T14:02:11.879Z,25.82
2019-02-21T14:04:40.535Z,25.22
2019-02-21T14:07:14.220Z,24.96
2019-02-21T14:09:44.846Z,24.19
2019-02-21T14:12:13.603Z,23.42
2019-02-21T14:14:45.232Z,23.02
2019-02-21T14:17:19.679Z,22.88
2019-02-21T14:19:52.873Z,23.43
2019-02-21T14:22:20.798Z,24.05
2019-02-21T14:24:49.631Z,24.25
2019-02-21T14:27:18.312Z,24.21
2019-02-21T14:29:46.995Z,24.00
2019-02-21T14:32:16.092Z,25.20
2019-02-21T14:34:44.640Z,25.46
2019-02-21T14:37:13.324Z,25.29
2019-02-21T14:39:41.972Z,24.89
2019-02-21T14:42:11.084Z,25.31
2019-02-21T14:44:39.669Z,25.25
2019-02-21T14:47:08.392Z,24.96
2019-02-21T14:49:36.998Z,24.84
2019-02-21T14:52:07.249Z,24.74
2019-02-21T14:54:38.070Z,23.57
2019-02-21T14:57:06.346Z,22.40
2019-02-21T14:59:34.904Z,20.65
2019-02-21T15:02:06.073Z,21.08
2019-02-21T15:04:33.809Z,21.19
2019-02-21T15:07:02.533Z,21.31
2019-02-21T15:09:31.183Z,21.29
2019-02-21T15:11:59.742Z,21.22
2019-02-21T15:14:28.345Z,20.54
2019-02-21T15:16:56.916Z,19.78
2019-02-21T15:19:25.497Z,19.52
2019-02-21T15:21:54.136Z,19.10
2019-02-21T15:24:22.706Z,18.74
2019-02-21T15:26:51.321Z,17.38
2019-02-21T15:29:20.393Z,17.38
2019-02-21T15:31:49.088Z,16.78
2019-02-21T15:34:17.641Z,16.39
2019-02-21T15:36:46.716Z,16.21
2019-02-21T15:39:15.351Z,16.07
2019-02-21T15:41:46.691Z,15.81
2019-02-21T15:44:15.228Z,15.51
2019-02-21T15:46:43.750Z,15.08
2019-02-21T15:49:12.499Z,14.62
2019-02-21T15:51:41.083Z,13.97
2019-02-21T15:54:12.322Z,13.40
2019-02-21T15:56:40.036Z,12.89
2019-02-21T15:59:08.738Z,12.49
2019-02-21T16:01:47.013Z,12.14
2019-02-21T16:04:07.664Z,11.81
2019-02-21T16:06:38.079Z,11.49
2019-02-21T16:09:15.835Z,11.26
2019-02-21T16:11:38.331Z,11.02
2019-02-21T16:14:06.986Z,10.82
2019-02-21T16:16:35.589Z,10.64
2019-02-21T16:19:04.210Z,10.51
2019-02-21T16:21:35.669Z,10.42
2019-02-21T16:24:04.239Z,10.27
2019-02-21T16:26:32.907Z,10.22
2019-02-21T16:29:01.635Z,10.13
2019-02-21T16:31:32.948Z,9.99
2019-02-21T16:34:01.618Z,9.94
2019-02-21T16:36:30.294Z,9.87
2019-02-21T16:39:04.324Z,9.78
2019-02-21T16:41:36.268Z,9.77
2019-02-21T16:44:07.013Z,9.71
2019-02-21T16:46:38.050Z,9.60
2019-02-21T16:49:06.687Z,9.50
2019-02-21T16:51:35.325Z,9.36
2019-02-21T16:54:06.612Z,9.27
2019-02-21T16:56:35.302Z,9.23
2019-02-21T16:59:03.888Z,9.08
2019-02-21T17:01:33.025Z,8.93
2019-02-21T17:04:01.574Z,8.93
2019-02-21T17:06:30.139Z,9.01
2019-02-21T17:08:58.677Z,9.01
2019-02-21T17:11:30.133Z,8.92
2019-02-21T17:13:58.756Z,8.86
2019-02-21T17:16:30.116Z,8.79
2019-02-21T17:18:58.715Z,8.65
2019-02-21T17:21:27.276Z,8.52
2019-02-21T17:23:55.941Z,8.38
2019-02-21T17:26:24.585Z,8.24
2019-02-21T17:28:53.152Z,8.17
2019-02-21T17:31:21.819Z,8.24
2019-02-21T17:33:50.383Z,8.17
2019-02-21T17:36:18.998Z,8.14
2019-02-21T17:38:47.615Z,8.15
2019-02-21T17:41:16.299Z,8.14
2019-02-21T17:43:44.904Z,8.09
2019-02-21T17:46:13.581Z,8.05
2019-02-21T17:48:42.248Z,8.03
2019-02-21T17:51:13.854Z,8.01
2019-02-21T17:53:42.614Z,8.00
2019-02-21T17:56:11.258Z,7.96
2019-02-21T17:58:39.878Z,7.88
2019-02-21T18:01:08.759Z,7.90
2019-02-21T18:03:37.398Z,7.80
2019-02-21T18:06:05.996Z,7.87
2019-02-21T18:08:37.313Z,7.90
2019-02-21T18:11:08.913Z,7.84
2019-02-21T18:13:37.545Z,7.72
2019-02-21T18:16:08.932Z,7.66
2019-02-21T18:18:40.348Z,7.66
2019-02-21T18:21:09.091Z,7.64
2019-02-21T18:23:37.720Z,7.61
2019-02-21T18:26:09.297Z,7.57
2019-02-21T18:28:40.763Z,7.46
2019-02-21T18:31:09.476Z,7.50
2019-02-21T18:33:38.904Z,7.45
2019-02-21T18:36:07.536Z,7.35
2019-02-21T18:38:36.229Z,7.25
2019-02-21T18:41:04.884Z,7.25
2019-02-21T18:43:33.589Z,7.15
2019-02-21T18:46:02.350Z,7.19
2019-02-21T18:48:31.211Z,7.09
2019-02-21T18:50:59.860Z,7.10
2019-02-21T18:53:35.184Z,7.02
2019-02-21T18:56:03.987Z,6.98
2019-02-21T18:58:32.735Z,6.91
2019-02-21T19:01:01.463Z,6.83
2019-02-21T19:03:30.141Z,6.73
2019-02-21T19:05:58.864Z,6.67
2019-02-21T19:08:28.478Z,6.48
2019-02-21T19:10:57.100Z,6.19
2019-02-21T19:13:25.685Z,5.95
2019-02-21T19:15:54.319Z,5.82
2019-02-21T19:18:24.307Z,5.71
2019-02-21T19:20:53.747Z,5.65
2019-02-21T19:23:22.469Z,5.60
2019-02-21T19:25:51.286Z,5.56
2019-02-21T19:28:22.742Z,5.55
2019-02-21T19:30:59.952Z,5.49
2019-02-21T19:33:31.547Z,5.45
2019-02-21T19:36:00.243Z,5.32
2019-02-21T19:38:28.897Z,5.53
2019-02-21T19:40:57.560Z,5.54
2019-02-21T19:43:26.196Z,5.55
2019-02-21T19:45:55.412Z,5.63
2019-02-21T19:48:24.450Z,5.72
2019-02-21T19:50:53.055Z,5.82
2019-02-21T19:53:21.698Z,5.99
2019-02-21T19:55:50.357Z,6.05
2019-02-21T19:58:19.006Z,6.11
2019-02-21T20:00:48.696Z,6.14
2019-02-21T20:03:17.326Z,6.10
2019-02-21T20:05:47.441Z,6.14
2019-02-21T20:08:21.525Z,6.19
2019-02-21T20:10:49.259Z,6.20
2019-02-21T20:13:17.842Z,6.19
2019-02-21T20:15:46.454Z,6.17
2019-02-21T20:18:15.183Z,6.18
2019-02-21T20:20:43.791Z,6.19
2019-02-21T20:23:15.212Z,6.11
2019-02-21T20:25:43.900Z,6.11
2019-02-21T20:28:12.535Z,6.04
2019-02-21T20:30:41.955Z,6.03
2019-02-21T20:33:11.128Z,6.16
2019-02-21T20:35:39.626Z,6.18
2019-02-21T20:38:08.235Z,6.21
2019-02-21T20:40:36.797Z,6.18
2019-02-21T20:43:05.506Z,6.06
2019-02-21T20:45:52.899Z,6.05
2019-02-21T20:48:17.342Z,5.97
2019-02-21T20:50:56.374Z,5.97
2019-02-21T20:53:19.333Z,5.97
2019-02-21T20:55:51.407Z,6.08
2019-02-21T20:58:20.024Z,6.13
2019-02-21T21:00:48.722Z,6.10
2019-02-21T21:03:17.468Z,6.10
2019-02-21T21:05:46.097Z,6.05
2019-02-21T21:08:14.773Z,6.08
2019-02-21T21:10:43.411Z,6.07
2019-02-21T21:13:11.930Z,6.03
2019-02-21T21:15:40.542Z,6.00
2019-02-21T21:18:09.879Z,5.94
2019-02-21T21:20:38.636Z,5.88
2019-02-21T21:23:07.196Z,5.71
2019-02-21T21:25:36.398Z,5.54
2019-02-21T21:28:05.024Z,5.47
2019-02-21T21:30:33.637Z,5.30
2019-02-21T21:33:02.254Z,5.35
2019-02-21T21:35:31.032Z,5.32
2019-02-21T21:38:02.139Z,5.24
2019-02-21T21:40:30.809Z,5.26
2019-02-21T21:43:01.905Z,5.28
2019-02-21T21:45:30.911Z,5.29
2019-02-21T21:47:59.459Z,5.23
2019-02-21T21:50:28.146Z,5.25
2019-02-21T21:52:57.338Z,5.24
2019-02-21T21:55:25.970Z,5.25
2019-02-21T21:57:54.655Z,5.22
2019-02-21T22:00:24.124Z,5.23
2019-02-21T22:02:53.197Z,5.15
2019-02-21T22:05:21.916Z,5.18
2019-02-21T22:07:50.584Z,5.14
2019-02-21T22:10:19.225Z,5.09
2019-02-21T22:12:48.066Z,4.98
2019-02-21T22:15:19.046Z,4.89
2019-02-21T22:17:47.684Z,4.71
2019-02-21T22:20:16.376Z,4.60
2019-02-21T22:22:44.989Z,4.60
2019-02-21T22:25:14.496Z,4.55
2019-02-21T22:27:43.117Z,4.42
2019-02-21T22:30:14.493Z,4.30
2019-02-21T22:32:43.307Z,4.14
2019-02-21T22:35:11.936Z,4.14
2019-02-21T22:37:40.626Z,4.18
2019-02-21T22:40:15.264Z,4.22
2019-02-21T22:42:43.909Z,4.35
2019-02-21T22:45:12.527Z,4.31
2019-02-21T22:47:41.222Z,3.88
2019-02-21T22:50:19.792Z,3.52
2019-02-21T22:52:48.476Z,3.62
2019-02-21T22:58:57.936Z,3.64
2019-02-21T23:01:28.855Z,3.63
2019-02-21T23:04:09.641Z,3.44
2019-02-21T23:06:57.250Z,3.19
2019-02-21T23:09:30.681Z,2.94
2019-02-21T23:15:04.484Z,2.89
2019-02-21T23:17:33.048Z,2.77
2019-02-21T23:20:01.730Z,2.71
2019-02-21T23:22:30.370Z,2.67
2019-02-21T23:24:59.006Z,2.69
2019-02-21T23:27:27.641Z,2.68
2019-02-21T23:29:56.359Z,2.69
2019-02-21T23:32:25.038Z,2.69
2019-02-21T23:34:54.798Z,2.69
2019-02-21T23:37:23.475Z,2.74
2019-02-21T23:39:52.026Z,2.73
2019-02-21T23:42:20.841Z,2.71
2019-02-21T23:44:49.479Z,2.73
2019-02-21T23:47:18.126Z,2.87
2019-02-21T23:49:46.849Z,3.00
2019-02-21T23:52:15.337Z,2.92
2019-02-21T23:54:43.959Z,2.95
2019-02-21T23:57:13.456Z,3.00
2019-02-21T23:59:42.098Z,3.00
